Terminal Aerodrome Forecast
Issued by NWS

Home | Current Version | Previous Version | Text Only | Print | Product List | Glossary On
Versions: 1 2 3 4 5 6 7 8 9 10 11 12 13
000
FTUS45 KGJT 182335
TAFTEX
TAF
KTEX 182335Z 1900/1924 16016G22KT P6SM BKN090
     FM190200 20017G40KT P6SM VCSH FEW035 SCT250
     FM190700 21019G43KT 6SM -SHSN SCT015 BKN090
     FM191500 22023G50KT 5SM -SHSN BLSN SCT015 OVC045
     FM191800 20022G50KT 5SM -SHSN BLSN SCT020 BKN035
     FM192100 21018G43KT 3SM -SHSN BLSN BKN020=

USA.gov is the U.S. government's official web portal to all federal, state and local government web resources and services.